createdAt,value
2022-10-14T00:00:18.812Z,12.11
2022-10-14T00:03:26.039Z,12.03
2022-10-14T00:06:33.526Z,11.89
2022-10-14T00:09:40.085Z,11.48
2022-10-14T00:12:47.525Z,11.58
2022-10-14T00:15:53.847Z,11.48
2022-10-14T00:19:01.523Z,11.56
2022-10-14T00:22:07.995Z,11.13
2022-10-14T00:25:14.350Z,11.01
2022-10-14T00:28:20.833Z,10.87
2022-10-14T00:31:27.585Z,10.95
2022-10-14T00:34:35.280Z,11.08
2022-10-14T00:37:41.331Z,11.20
2022-10-14T00:40:47.471Z,11.13
2022-10-14T00:44:00.527Z,11.38
2022-10-14T00:47:06.900Z,11.81
2022-10-14T00:50:17.238Z,11.83
2022-10-14T00:53:23.697Z,11.90
2022-10-14T00:56:31.039Z,11.88
2022-10-14T00:59:37.294Z,12.08
2022-10-14T01:02:44.167Z,11.95
2022-10-14T01:05:59.714Z,11.91
2022-10-14T01:09:14.574Z,12.06
2022-10-14T01:12:29.949Z,12.07
2022-10-14T01:15:42.378Z,11.89
2022-10-14T01:19:01.883Z,11.89
2022-10-14T01:22:22.162Z,11.85
2022-10-14T01:25:34.762Z,11.57
2022-10-14T01:28:48.290Z,11.86
2022-10-14T01:32:02.879Z,11.69
2022-10-14T01:35:14.987Z,11.69
2022-10-14T01:38:25.759Z,11.79
2022-10-14T01:41:36.791Z,11.72
2022-10-14T01:44:48.697Z,11.92
2022-10-14T01:47:56.688Z,12.03
2022-10-14T01:51:06.365Z,11.96
2022-10-14T01:54:16.387Z,11.90
2022-10-14T01:57:28.041Z,11.73
2022-10-14T02:00:34.092Z,11.70
2022-10-14T02:03:43.672Z,11.80
2022-10-14T02:06:55.715Z,11.65
2022-10-14T02:10:13.660Z,11.69
2022-10-14T02:13:31.175Z,11.39
2022-10-14T02:16:41.729Z,11.39
2022-10-14T02:19:53.874Z,11.54
2022-10-14T02:23:03.879Z,11.04
2022-10-14T02:26:11.291Z,11.45
2022-10-14T02:29:19.905Z,11.26
2022-10-14T02:32:29.368Z,11.41
2022-10-14T02:35:40.236Z,11.27
2022-10-14T02:38:48.793Z,11.41
2022-10-14T02:41:55.091Z,11.42
2022-10-14T02:45:03.527Z,11.60
2022-10-14T02:48:10.132Z,11.59
2022-10-14T02:51:17.920Z,11.34
2022-10-14T02:54:24.241Z,11.06
2022-10-14T02:57:30.562Z,11.21
2022-10-14T03:00:37.284Z,11.53
2022-10-14T03:03:43.367Z,11.51
2022-10-14T03:06:51.264Z,11.45
2022-10-14T03:09:58.441Z,11.10
2022-10-14T03:13:04.536Z,11.36
2022-10-14T03:16:10.765Z,11.42
2022-10-14T03:19:17.075Z,11.53
2022-10-14T03:22:24.747Z,11.53
2022-10-14T03:25:31.038Z,11.44
2022-10-14T03:28:37.278Z,11.56
2022-10-14T03:31:43.350Z,11.75
2022-10-14T03:34:49.272Z,11.81
2022-10-14T03:37:56.939Z,11.79
2022-10-14T03:41:02.845Z,11.74
2022-10-14T03:44:09.132Z,11.61
2022-10-14T03:47:15.448Z,11.68
2022-10-14T03:50:21.818Z,11.46
2022-10-14T03:53:29.673Z,11.46
2022-10-14T03:56:35.877Z,11.21
2022-10-14T03:59:42.414Z,11.52
2022-10-14T04:02:48.552Z,11.39
2022-10-14T04:05:55.123Z,11.39
2022-10-14T04:09:03.374Z,11.55
2022-10-14T04:12:09.665Z,11.47
2022-10-14T04:15:16.194Z,11.48
2022-10-14T04:18:22.466Z,11.09
2022-10-14T04:21:28.922Z,11.46
2022-10-14T04:24:36.684Z,11.41
2022-10-14T04:27:43.003Z,11.40
2022-10-14T04:30:49.460Z,11.37
2022-10-14T04:33:55.875Z,11.08
2022-10-14T04:37:02.106Z,11.24
2022-10-14T04:40:10.781Z,11.27
2022-10-14T04:43:17.098Z,11.19
2022-10-14T04:46:23.487Z,11.20
2022-10-14T04:49:30.048Z,11.14
2022-10-14T04:52:36.169Z,11.24
2022-10-14T04:55:45.598Z,11.18
2022-10-14T04:58:51.964Z,11.41
2022-10-14T05:01:58.407Z,11.11
2022-10-14T05:05:05.311Z,11.24
2022-10-14T05:08:11.804Z,11.31
2022-10-14T05:11:19.763Z,11.12
2022-10-14T05:14:26.205Z,11.21
2022-10-14T05:17:32.581Z,11.31
2022-10-14T05:20:39.037Z,11.42
2022-10-14T05:23:45.437Z,11.05
2022-10-14T05:26:52.575Z,11.09
2022-10-14T05:29:58.589Z,11.25
2022-10-14T05:33:04.724Z,11.07
2022-10-14T05:36:11.406Z,10.97
2022-10-14T05:39:17.752Z,11.26
2022-10-14T05:42:25.525Z,11.21
2022-10-14T05:45:31.958Z,11.48
2022-10-14T05:48:38.283Z,11.33
2022-10-14T05:51:44.550Z,11.69
2022-10-14T05:54:50.960Z,11.76
2022-10-14T05:57:59.609Z,11.87
2022-10-14T06:01:08.232Z,11.57
2022-10-14T06:04:18.954Z,11.72
2022-10-14T06:07:25.224Z,11.70
2022-10-14T06:10:31.754Z,11.75
2022-10-14T06:13:39.830Z,11.69
2022-10-14T06:16:45.851Z,11.33
2022-10-14T06:19:52.196Z,11.99
2022-10-14T06:23:00.088Z,11.79
2022-10-14T06:26:07.648Z,11.71
2022-10-14T06:29:15.411Z,11.55
2022-10-14T06:32:21.858Z,11.55
2022-10-14T06:35:28.883Z,11.76
2022-10-14T06:38:35.396Z,11.82
2022-10-14T06:41:41.815Z,11.74
2022-10-14T06:44:49.428Z,12.20
2022-10-14T06:47:55.648Z,12.36
2022-10-14T06:51:02.759Z,12.49
2022-10-14T06:54:09.295Z,12.54
2022-10-14T06:57:15.539Z,12.60
2022-10-14T07:00:23.514Z,12.68
2022-10-14T07:03:30.578Z,12.87
2022-10-14T07:06:38.359Z,12.98
2022-10-14T07:09:44.601Z,12.66
2022-10-14T07:12:50.643Z,12.60
2022-10-14T07:15:58.199Z,12.77
2022-10-14T07:19:04.378Z,12.76
2022-10-14T07:22:10.535Z,12.67
2022-10-14T07:25:17.139Z,12.33
2022-10-14T07:28:23.166Z,12.98
2022-10-14T07:31:31.044Z,12.75
2022-10-14T07:34:37.039Z,12.69
2022-10-14T07:37:43.347Z,12.92
2022-10-14T07:40:58.864Z,12.87
2022-10-14T07:44:09.091Z,12.86
2022-10-14T07:47:17.339Z,12.98
2022-10-14T07:50:23.720Z,13.10
2022-10-14T07:53:30.237Z,12.82
2022-10-14T07:56:36.851Z,13.01
2022-10-14T07:59:42.840Z,13.19
2022-10-14T08:02:50.387Z,13.07
2022-10-14T08:06:05.090Z,12.70
2022-10-14T08:09:13.055Z,13.08
2022-10-14T08:12:19.829Z,12.63
2022-10-14T08:15:28.658Z,12.72
2022-10-14T08:18:36.452Z,12.69
2022-10-14T08:21:43.411Z,12.82
2022-10-14T08:24:50.222Z,13.12
2022-10-14T08:27:57.664Z,13.04
2022-10-14T08:31:04.079Z,13.14
2022-10-14T08:34:11.985Z,13.20
2022-10-14T08:37:18.068Z,13.15
2022-10-14T08:40:24.669Z,13.20
2022-10-14T08:43:34.827Z,13.25
2022-10-14T08:46:49.433Z,13.14
2022-10-14T08:50:04.265Z,13.24
2022-10-14T08:53:15.922Z,13.20
2022-10-14T08:56:22.482Z,13.09
2022-10-14T08:59:29.146Z,13.07
2022-10-14T09:02:43.292Z,13.06
2022-10-14T09:06:01.422Z,13.02
2022-10-14T09:09:10.331Z,12.84
2022-10-14T09:12:20.413Z,13.08
2022-10-14T09:15:33.130Z,12.74
2022-10-14T09:18:43.510Z,13.18
2022-10-14T09:21:54.523Z,12.88
2022-10-14T09:25:01.327Z,13.24
2022-10-14T09:28:07.494Z,13.33
2022-10-14T09:31:15.784Z,13.29
2022-10-14T09:34:31.245Z,13.06
2022-10-14T09:37:39.516Z,13.04
2022-10-14T09:40:49.171Z,13.05
2022-10-14T09:44:19.931Z,13.61
2022-10-14T09:47:26.137Z,13.61
2022-10-14T09:50:36.603Z,13.67
2022-10-14T09:53:48.718Z,13.78
2022-10-14T09:57:07.436Z,13.65
2022-10-14T10:00:27.371Z,13.59
2022-10-14T10:03:35.765Z,13.59
2022-10-14T10:06:53.977Z,13.60
2022-10-14T10:10:04.360Z,13.42
2022-10-14T10:13:32.744Z,13.41
2022-10-14T10:16:39.113Z,13.50
2022-10-14T10:19:47.496Z,13.59
2022-10-14T10:22:53.763Z,13.40
2022-10-14T10:26:16.752Z,13.62
2022-10-14T10:29:29.191Z,13.51
2022-10-14T10:32:42.616Z,13.56
2022-10-14T10:36:08.235Z,13.41
2022-10-14T10:39:25.102Z,13.36
2022-10-14T10:42:40.742Z,13.38
2022-10-14T10:46:01.765Z,13.38
2022-10-14T10:49:20.015Z,13.35
2022-10-14T10:52:37.805Z,13.43
2022-10-14T10:55:55.025Z,13.38
2022-10-14T10:59:39.822Z,13.33
2022-10-14T11:03:01.862Z,13.34
2022-10-14T11:06:36.082Z,13.37
2022-10-14T11:10:06.523Z,13.17
2022-10-14T11:13:22.579Z,13.15
2022-10-14T11:16:41.045Z,13.18
2022-10-14T11:19:55.236Z,13.38
2022-10-14T11:23:30.322Z,13.42
2022-10-14T11:27:00.797Z,13.02
2022-10-14T11:30:18.592Z,13.29
2022-10-14T11:33:39.841Z,13.09
2022-10-14T11:36:58.419Z,13.27
2022-10-14T11:40:16.557Z,13.40
2022-10-14T11:43:32.386Z,13.21
2022-10-14T11:46:42.495Z,12.83
2022-10-14T11:49:57.519Z,12.64
2022-10-14T11:53:14.491Z,12.53
2022-10-14T11:56:30.460Z,12.32
2022-10-14T11:59:43.465Z,12.28
2022-10-14T12:02:57.185Z,12.23
2022-10-14T12:06:10.790Z,12.08
2022-10-14T12:09:26.467Z,12.02
2022-10-14T12:12:37.766Z,11.93
2022-10-14T12:15:51.554Z,12.17
2022-10-14T12:18:58.834Z,12.11
2022-10-14T12:22:15.607Z,12.08
2022-10-14T12:25:27.630Z,12.12
2022-10-14T12:28:35.590Z,11.99
2022-10-14T12:31:41.892Z,12.04
2022-10-14T12:34:49.776Z,11.95
2022-10-14T12:38:04.725Z,12.08
2022-10-14T12:41:43.758Z,11.99
2022-10-14T12:44:54.077Z,11.99
2022-10-14T12:48:16.667Z,11.72
2022-10-14T12:51:25.191Z,11.94
2022-10-14T12:54:32.919Z,12.05
2022-10-14T12:57:42.289Z,11.97
2022-10-14T13:00:56.049Z,12.07
2022-10-14T13:04:05.214Z,11.98
2022-10-14T13:07:40.080Z,11.64
2022-10-14T13:10:48.591Z,11.66
2022-10-14T13:14:03.307Z,11.44
2022-10-14T13:17:31.803Z,11.54
2022-10-14T13:20:54.263Z,11.69
2022-10-14T13:24:02.938Z,11.24
2022-10-14T13:27:21.037Z,11.31
2022-10-14T13:30:36.807Z,11.14
2022-10-14T13:33:48.919Z,11.25
2022-10-14T13:37:21.838Z,10.96
2022-10-14T13:40:31.815Z,10.84
2022-10-14T13:43:42.416Z,11.01
2022-10-14T13:46:51.659Z,10.77
2022-10-14T13:49:58.163Z,10.56
2022-10-14T13:53:10.476Z,10.66
2022-10-14T13:56:23.096Z,10.88
2022-10-14T13:59:43.718Z,10.46
2022-10-14T14:02:56.695Z,10.72
2022-10-14T14:06:12.366Z,10.45
2022-10-14T14:09:22.995Z,10.49
2022-10-14T14:12:29.741Z,10.32
2022-10-14T14:15:37.767Z,10.36
2022-10-14T14:19:04.010Z,10.38
2022-10-14T14:22:19.429Z,10.45
2022-10-14T14:25:34.386Z,10.58
2022-10-14T14:28:41.135Z,10.48
2022-10-14T14:32:05.569Z,10.51
2022-10-14T14:35:17.057Z,10.62
2022-10-14T14:38:27.698Z,10.47
2022-10-14T14:41:34.327Z,10.59
2022-10-14T14:44:43.560Z,10.49
2022-10-14T14:47:51.331Z,10.54
2022-10-14T14:51:01.105Z,10.52
2022-10-14T14:54:08.858Z,10.22
2022-10-14T14:57:19.952Z,10.23
2022-10-14T15:00:26.664Z,10.35
2022-10-14T15:03:35.722Z,10.31
2022-10-14T15:06:51.312Z,10.39
2022-10-14T15:10:00.828Z,10.24
2022-10-14T15:13:25.533Z,10.09
2022-10-14T15:16:36.598Z,10.22
2022-10-14T15:19:42.726Z,10.33
2022-10-14T15:22:51.852Z,10.33
2022-10-14T15:25:59.420Z,10.33
2022-10-14T15:32:30.470Z,10.15
2022-10-14T15:35:37.280Z,10.21
2022-10-14T15:38:44.875Z,10.12
2022-10-14T15:41:51.214Z,10.18
2022-10-14T15:44:57.835Z,10.01
2022-10-14T15:48:07.603Z,10.15
2022-10-14T15:51:17.421Z,9.93
2022-10-14T15:54:27.717Z,9.94
2022-10-14T15:57:33.958Z,10.24
2022-10-14T16:00:40.682Z,10.18
2022-10-14T16:03:46.751Z,10.16
2022-10-14T16:06:55.308Z,10.09
2022-10-14T16:10:02.695Z,10.16
2022-10-14T16:13:08.519Z,9.97
2022-10-14T16:16:16.786Z,9.72
2022-10-14T16:19:22.807Z,9.64
2022-10-14T16:22:29.269Z,9.47
2022-10-14T16:25:39.889Z,9.77
2022-10-14T16:28:45.743Z,9.38
2022-10-14T16:31:53.902Z,9.25
2022-10-14T16:35:00.465Z,9.24
2022-10-14T16:38:06.693Z,9.64
2022-10-14T16:41:14.819Z,9.50
2022-10-14T16:44:27.623Z,9.57
2022-10-14T16:47:33.890Z,9.50
2022-10-14T16:50:40.240Z,9.91
2022-10-14T16:53:48.946Z,9.83
2022-10-14T16:56:57.047Z,9.78
2022-10-14T17:00:03.698Z,9.90
2022-10-14T17:03:10.555Z,9.97
2022-10-14T17:06:21.704Z,9.88
2022-10-14T17:09:30.423Z,9.88
2022-10-14T17:12:38.207Z,9.92
2022-10-14T17:15:44.652Z,9.53
2022-10-14T17:18:51.437Z,9.89
2022-10-14T17:21:57.644Z,9.87
2022-10-14T17:25:03.901Z,10.07
2022-10-14T17:28:12.916Z,9.64
2022-10-14T17:31:20.698Z,9.99
2022-10-14T17:34:26.972Z,10.00
2022-10-14T17:37:33.338Z,9.89
2022-10-14T17:40:39.588Z,9.77
2022-10-14T17:43:49.543Z,9.93
2022-10-14T17:46:57.005Z,9.75
2022-10-14T17:50:03.015Z,9.71
2022-10-14T17:53:12.004Z,9.71
2022-10-14T17:56:18.430Z,9.53
2022-10-14T17:59:26.079Z,9.76
2022-10-14T18:02:32.136Z,9.52
2022-10-14T18:05:39.624Z,9.57
2022-10-14T18:08:47.473Z,9.72
2022-10-14T18:12:08.236Z,9.50
2022-10-14T18:15:16.921Z,9.53
2022-10-14T18:18:23.431Z,9.73
2022-10-14T18:21:30.138Z,9.46
2022-10-14T18:24:38.484Z,9.21
2022-10-14T18:27:45.145Z,9.47
2022-10-14T18:30:52.469Z,9.68
2022-10-14T18:34:00.812Z,9.63
2022-10-14T18:37:06.655Z,9.74
2022-10-14T18:40:14.721Z,9.45
2022-10-14T18:43:20.711Z,9.27
2022-10-14T18:46:30.475Z,9.77
2022-10-14T18:49:39.926Z,9.84
2022-10-14T18:52:46.626Z,9.92
2022-10-14T18:55:56.707Z,9.91
2022-10-14T18:59:09.272Z,9.88
2022-10-14T19:02:17.081Z,9.96
2022-10-14T19:05:23.635Z,9.87
2022-10-14T19:08:30.236Z,9.92
2022-10-14T19:11:36.411Z,9.94
2022-10-14T19:14:43.511Z,10.00
2022-10-14T19:17:54.533Z,9.94
2022-10-14T19:21:09.202Z,10.06
2022-10-14T19:24:17.168Z,9.85
2022-10-14T19:27:23.565Z,10.04
2022-10-14T19:30:30.231Z,9.81
2022-10-14T19:33:39.148Z,10.01
2022-10-14T19:36:46.439Z,9.92
2022-10-14T19:39:52.544Z,10.03
2022-10-14T19:42:58.927Z,9.59
2022-10-14T19:46:09.659Z,10.11
2022-10-14T19:49:17.985Z,10.17
2022-10-14T19:52:23.946Z,9.75
2022-10-14T19:55:30.191Z,9.98
2022-10-14T19:58:38.606Z,9.83
2022-10-14T20:01:47.553Z,10.03
2022-10-14T20:04:54.835Z,9.89
2022-10-14T20:08:02.006Z,9.48
2022-10-14T20:11:10.452Z,9.78
2022-10-14T20:14:18.719Z,9.98
2022-10-14T20:17:25.042Z,9.92
2022-10-14T20:20:32.476Z,9.94
2022-10-14T20:23:39.296Z,9.99
2022-10-14T20:26:45.402Z,10.00
2022-10-14T20:29:51.787Z,10.16
2022-10-14T20:32:57.876Z,10.11
2022-10-14T20:36:07.254Z,10.08
2022-10-14T20:39:13.257Z,10.14
2022-10-14T20:42:19.570Z,10.19
2022-10-14T20:45:25.879Z,10.40
2022-10-14T20:48:32.587Z,9.96
2022-10-14T20:51:41.254Z,10.27
2022-10-14T20:54:47.333Z,10.14
2022-10-14T20:57:53.773Z,10.22
2022-10-14T21:01:10.860Z,10.29
2022-10-14T21:04:17.104Z,10.02
2022-10-14T21:07:25.213Z,10.17
2022-10-14T21:10:31.594Z,10.31
2022-10-14T21:13:37.624Z,10.23
2022-10-14T21:16:43.875Z,10.25
2022-10-14T21:19:50.327Z,10.00
2022-10-14T21:22:58.338Z,9.79
2022-10-14T21:26:04.418Z,10.06
2022-10-14T21:29:11.727Z,10.23
2022-10-14T21:32:17.963Z,10.30
2022-10-14T21:35:24.388Z,10.06
2022-10-14T21:38:32.163Z,10.11
2022-10-14T21:41:39.489Z,10.20
2022-10-14T21:44:45.540Z,10.27
2022-10-14T21:47:53.527Z,10.01
2022-10-14T21:51:04.079Z,10.14
2022-10-14T21:54:12.879Z,10.25
2022-10-14T21:57:19.055Z,10.31
2022-10-14T22:00:25.420Z,10.02
2022-10-14T22:03:31.719Z,9.69
2022-10-14T22:06:38.137Z,9.49
2022-10-14T22:09:45.392Z,9.78
2022-10-14T22:12:51.476Z,9.88
2022-10-14T22:15:58.345Z,10.11
2022-10-14T22:19:06.425Z,9.80
2022-10-14T22:22:12.560Z,10.22
2022-10-14T22:25:20.323Z,10.15
2022-10-14T22:28:26.381Z,9.88
2022-10-14T22:31:34.055Z,9.97
2022-10-14T22:34:40.289Z,10.16
2022-10-14T22:37:46.478Z,10.30
2022-10-14T22:40:53.696Z,9.72
2022-10-14T22:44:00.354Z,9.85
2022-10-14T22:47:06.591Z,9.98
2022-10-14T22:50:12.675Z,9.96
2022-10-14T22:53:19.047Z,9.91
2022-10-14T22:56:28.658Z,9.81
2022-10-14T22:59:35.022Z,9.88
2022-10-14T23:02:41.301Z,10.11
2022-10-14T23:05:47.963Z,10.03
2022-10-14T23:08:54.454Z,10.06
2022-10-14T23:12:02.382Z,10.05
2022-10-14T23:15:09.870Z,9.92
2022-10-14T23:18:16.253Z,10.20
2022-10-14T23:21:24.313Z,9.98
2022-10-14T23:24:30.338Z,10.28
2022-10-14T23:27:37.916Z,10.22
2022-10-14T23:30:44.210Z,10.21
2022-10-14T23:33:52.342Z,10.26
2022-10-14T23:36:58.607Z,9.89
2022-10-14T23:40:04.977Z,9.92
2022-10-14T23:43:12.599Z,10.03
2022-10-14T23:46:19.426Z,10.14
2022-10-14T23:49:26.450Z,10.32
2022-10-14T23:52:32.562Z,10.48
2022-10-14T23:55:38.776Z,10.33
2022-10-14T23:58:46.330Z,10.51
